sensor_id;sensor_type;location;lat;lon;timestamp;P1;durP1;ratioP1;P2;durP2;ratioP2
72684;SDS011;61365;52.162;4.500;2022-11-27T00:01:16;22.33;;;6.22;;
72684;SDS011;61365;52.162;4.500;2022-11-27T00:03:45;18.35;;;6.38;;
72684;SDS011;61365;52.162;4.500;2022-11-27T00:06:13;15.32;;;6.30;;
72684;SDS011;61365;52.162;4.500;2022-11-27T00:08:43;13.82;;;5.30;;
72684;SDS011;61365;52.162;4.500;2022-11-27T00:11:12;21.80;;;7.30;;
72684;SDS011;61365;52.162;4.500;2022-11-27T00:13:44;18.77;;;5.82;;
72684;SDS011;61365;52.162;4.500;2022-11-27T00:16:11;15.40;;;5.95;;
72684;SDS011;61365;52.162;4.500;2022-11-27T00:18:39;20.55;;;6.65;;
72684;SDS011;61365;52.162;4.500;2022-11-27T00:21:10;21.73;;;6.45;;
72684;SDS011;61365;52.162;4.500;2022-11-27T00:23:40;17.58;;;5.43;;
72684;SDS011;61365;52.162;4.500;2022-11-27T00:26:07;18.08;;;5.07;;
72684;SDS011;61365;52.162;4.500;2022-11-27T00:28:35;20.65;;;5.07;;
72684;SDS011;61365;52.162;4.500;2022-11-27T00:31:04;14.13;;;4.90;;
72684;SDS011;61365;52.162;4.500;2022-11-27T00:33:33;17.48;;;5.85;;
72684;SDS011;61365;52.162;4.500;2022-11-27T00:36:03;16.83;;;5.00;;
72684;SDS011;61365;52.162;4.500;2022-11-27T00:38:31;16.48;;;4.35;;
72684;SDS011;61365;52.162;4.500;2022-11-27T00:41:04;12.20;;;4.32;;
72684;SDS011;61365;52.162;4.500;2022-11-27T00:43:36;18.50;;;5.18;;
72684;SDS011;61365;52.162;4.500;2022-11-27T00:46:03;19.52;;;5.07;;
72684;SDS011;61365;52.162;4.500;2022-11-27T00:48:30;15.23;;;4.63;;
72684;SDS011;61365;52.162;4.500;2022-11-27T00:51:00;17.80;;;4.20;;
72684;SDS011;61365;52.162;4.500;2022-11-27T00:53:32;13.57;;;4.10;;
72684;SDS011;61365;52.162;4.500;2022-11-27T00:55:59;15.60;;;4.43;;
72684;SDS011;61365;52.162;4.500;2022-11-27T00:58:26;17.27;;;4.05;;
72684;SDS011;61365;52.162;4.500;2022-11-27T01:00:59;13.88;;;4.35;;
72684;SDS011;61365;52.162;4.500;2022-11-27T01:03:28;14.13;;;4.05;;
72684;SDS011;61365;52.162;4.500;2022-11-27T01:05:56;12.57;;;3.90;;
72684;SDS011;61365;52.162;4.500;2022-11-27T01:08:32;16.45;;;3.90;;
72684;SDS011;61365;52.162;4.500;2022-11-27T01:10:59;15.30;;;4.28;;
72684;SDS011;61365;52.162;4.500;2022-11-27T01:13:27;17.08;;;3.92;;
72684;SDS011;61365;52.162;4.500;2022-11-27T01:16:02;14.32;;;4.07;;
72684;SDS011;61365;52.162;4.500;2022-11-27T01:18:40;16.27;;;3.45;;
72684;SDS011;61365;52.162;4.500;2022-11-27T01:21:09;21.08;;;3.92;;
72684;SDS011;61365;52.162;4.500;2022-11-27T01:23:36;13.00;;;3.85;;
72684;SDS011;61365;52.162;4.500;2022-11-27T01:26:04;13.70;;;3.97;;
72684;SDS011;61365;52.162;4.500;2022-11-27T01:28:33;13.68;;;4.07;;
72684;SDS011;61365;52.162;4.500;2022-11-27T01:31:07;11.73;;;4.90;;
72684;SDS011;61365;52.162;4.500;2022-11-27T01:36:11;12.55;;;4.28;;
72684;SDS011;61365;52.162;4.500;2022-11-27T01:38:40;13.05;;;4.15;;
72684;SDS011;61365;52.162;4.500;2022-11-27T01:41:09;12.40;;;4.40;;
72684;SDS011;61365;52.162;4.500;2022-11-27T01:43:52;16.15;;;4.20;;
72684;SDS011;61365;52.162;4.500;2022-11-27T01:49:19;14.95;;;4.65;;
72684;SDS011;61365;52.162;4.500;2022-11-27T01:52:14;15.73;;;4.22;;
72684;SDS011;61365;52.162;4.500;2022-11-27T01:54:49;15.10;;;4.95;;
72684;SDS011;61365;52.162;4.500;2022-11-27T01:57:47;15.05;;;4.00;;
72684;SDS011;61365;52.162;4.500;2022-11-27T02:00:23;13.82;;;3.88;;
72684;SDS011;61365;52.162;4.500;2022-11-27T02:02:50;18.80;;;4.15;;
72684;SDS011;61365;52.162;4.500;2022-11-27T02:05:18;14.07;;;4.13;;
72684;SDS011;61365;52.162;4.500;2022-11-27T02:07:49;18.33;;;4.95;;
72684;SDS011;61365;52.162;4.500;2022-11-27T02:10:17;16.83;;;4.25;;
72684;SDS011;61365;52.162;4.500;2022-11-27T02:13:01;21.83;;;4.03;;
72684;SDS011;61365;52.162;4.500;2022-11-27T02:21:53;14.75;;;3.63;;
72684;SDS011;61365;52.162;4.500;2022-11-27T02:25:06;15.57;;;3.78;;
72684;SDS011;61365;52.162;4.500;2022-11-27T02:30:22;13.65;;;4.38;;
72684;SDS011;61365;52.162;4.500;2022-11-27T02:32:56;14.73;;;4.00;;
72684;SDS011;61365;52.162;4.500;2022-11-27T02:35:29;16.98;;;4.03;;
72684;SDS011;61365;52.162;4.500;2022-11-27T02:38:09;12.52;;;3.97;;
72684;SDS011;61365;52.162;4.500;2022-11-27T02:41:06;15.98;;;4.38;;
72684;SDS011;61365;52.162;4.500;2022-11-27T02:43:47;11.93;;;3.95;;
72684;SDS011;61365;52.162;4.500;2022-11-27T02:46:17;13.77;;;3.90;;
72684;SDS011;61365;52.162;4.500;2022-11-27T02:48:50;12.43;;;3.58;;
72684;SDS011;61365;52.162;4.500;2022-11-27T02:51:24;13.70;;;3.83;;
72684;SDS011;61365;52.162;4.500;2022-11-27T02:54:05;13.38;;;3.58;;
72684;SDS011;61365;52.162;4.500;2022-11-27T02:56:36;15.13;;;4.32;;
72684;SDS011;61365;52.162;4.500;2022-11-27T02:59:07;14.40;;;4.18;;
72684;SDS011;61365;52.162;4.500;2022-11-27T03:01:43;16.80;;;3.95;;
72684;SDS011;61365;52.162;4.500;2022-11-27T03:04:19;14.75;;;4.43;;
72684;SDS011;61365;52.162;4.500;2022-11-27T03:06:54;15.20;;;3.75;;
72684;SDS011;61365;52.162;4.500;2022-11-27T03:09:32;8.98;;;3.58;;
72684;SDS011;61365;52.162;4.500;2022-11-27T03:12:05;14.02;;;4.15;;
72684;SDS011;61365;52.162;4.500;2022-11-27T03:14:34;17.20;;;4.15;;
72684;SDS011;61365;52.162;4.500;2022-11-27T03:17:17;13.05;;;4.30;;
72684;SDS011;61365;52.162;4.500;2022-11-27T03:22:45;12.77;;;3.35;;
72684;SDS011;61365;52.162;4.500;2022-11-27T03:25:12;14.48;;;3.92;;
72684;SDS011;61365;52.162;4.500;2022-11-27T03:27:43;10.38;;;3.47;;
72684;SDS011;61365;52.162;4.500;2022-11-27T03:30:18;11.82;;;3.80;;
72684;SDS011;61365;52.162;4.500;2022-11-27T03:32:45;16.95;;;4.05;;
72684;SDS011;61365;52.162;4.500;2022-11-27T03:35:12;12.02;;;3.25;;
72684;SDS011;61365;52.162;4.500;2022-11-27T03:37:44;14.10;;;3.70;;
72684;SDS011;61365;52.162;4.500;2022-11-27T03:40:11;16.98;;;3.60;;
72684;SDS011;61365;52.162;4.500;2022-11-27T03:45:49;10.00;;;3.42;;
72684;SDS011;61365;52.162;4.500;2022-11-27T03:48:37;17.45;;;4.05;;
72684;SDS011;61365;52.162;4.500;2022-11-27T03:54:48;13.10;;;3.55;;
72684;SDS011;61365;52.162;4.500;2022-11-27T03:57:34;14.68;;;3.25;;
72684;SDS011;61365;52.162;4.500;2022-11-27T04:00:07;11.48;;;3.28;;
72684;SDS011;61365;52.162;4.500;2022-11-27T04:02:38;14.68;;;3.63;;
72684;SDS011;61365;52.162;4.500;2022-11-27T04:05:10;12.38;;;3.50;;
72684;SDS011;61365;52.162;4.500;2022-11-27T04:07:38;12.82;;;3.60;;
72684;SDS011;61365;52.162;4.500;2022-11-27T04:10:05;11.52;;;2.95;;
72684;SDS011;61365;52.162;4.500;2022-11-27T04:12:32;12.57;;;3.25;;
72684;SDS011;61365;52.162;4.500;2022-11-27T04:14:59;13.35;;;3.72;;
72684;SDS011;61365;52.162;4.500;2022-11-27T04:17:25;15.80;;;3.78;;
72684;SDS011;61365;52.162;4.500;2022-11-27T04:19:52;13.02;;;3.60;;
72684;SDS011;61365;52.162;4.500;2022-11-27T04:22:18;17.23;;;3.45;;
72684;SDS011;61365;52.162;4.500;2022-11-27T04:24:46;10.32;;;2.80;;
72684;SDS011;61365;52.162;4.500;2022-11-27T04:27:12;13.32;;;3.22;;
72684;SDS011;61365;52.162;4.500;2022-11-27T04:29:38;13.27;;;3.10;;
72684;SDS011;61365;52.162;4.500;2022-11-27T04:32:05;15.60;;;3.55;;
72684;SDS011;61365;52.162;4.500;2022-11-27T04:34:31;10.02;;;3.10;;
72684;SDS011;61365;52.162;4.500;2022-11-27T04:36:58;10.80;;;3.42;;
72684;SDS011;61365;52.162;4.500;2022-11-27T04:39:25;15.27;;;3.30;;
72684;SDS011;61365;52.162;4.500;2022-11-27T04:41:51;12.70;;;3.13;;
72684;SDS011;61365;52.162;4.500;2022-11-27T04:44:18;16.27;;;4.10;;
72684;SDS011;61365;52.162;4.500;2022-11-27T04:46:47;10.48;;;3.30;;
72684;SDS011;61365;52.162;4.500;2022-11-27T04:49:14;14.60;;;3.40;;
72684;SDS011;61365;52.162;4.500;2022-11-27T04:51:41;17.13;;;3.95;;
72684;SDS011;61365;52.162;4.500;2022-11-27T04:54:07;12.25;;;3.15;;
72684;SDS011;61365;52.162;4.500;2022-11-27T04:56:34;14.25;;;3.40;;
72684;SDS011;61365;52.162;4.500;2022-11-27T04:59:00;15.57;;;3.92;;
72684;SDS011;61365;52.162;4.500;2022-11-27T05:01:26;11.57;;;3.20;;
72684;SDS011;61365;52.162;4.500;2022-11-27T05:03:52;12.90;;;3.30;;
72684;SDS011;61365;52.162;4.500;2022-11-27T05:06:19;7.90;;;3.08;;
72684;SDS011;61365;52.162;4.500;2022-11-27T05:08:47;12.30;;;2.90;;
72684;SDS011;61365;52.162;4.500;2022-11-27T05:11:15;17.33;;;3.83;;
72684;SDS011;61365;52.162;4.500;2022-11-27T05:13:43;16.48;;;3.45;;
72684;SDS011;61365;52.162;4.500;2022-11-27T05:16:10;11.98;;;3.10;;
72684;SDS011;61365;52.162;4.500;2022-11-27T05:18:37;7.82;;;2.40;;
72684;SDS011;61365;52.162;4.500;2022-11-27T05:21:04;21.20;;;3.80;;
72684;SDS011;61365;52.162;4.500;2022-11-27T05:23:33;11.30;;;3.10;;
72684;SDS011;61365;52.162;4.500;2022-11-27T05:26:00;11.95;;;2.90;;
72684;SDS011;61365;52.162;4.500;2022-11-27T05:28:28;14.55;;;3.17;;
72684;SDS011;61365;52.162;4.500;2022-11-27T05:30:54;12.18;;;2.97;;
72684;SDS011;61365;52.162;4.500;2022-11-27T05:33:20;12.95;;;3.25;;
72684;SDS011;61365;52.162;4.500;2022-11-27T05:35:46;12.07;;;3.17;;
72684;SDS011;61365;52.162;4.500;2022-11-27T05:38:13;10.90;;;2.75;;
72684;SDS011;61365;52.162;4.500;2022-11-27T05:40:39;13.55;;;3.35;;
72684;SDS011;61365;52.162;4.500;2022-11-27T05:43:05;12.82;;;3.25;;
72684;SDS011;61365;52.162;4.500;2022-11-27T05:45:32;12.77;;;2.83;;
72684;SDS011;61365;52.162;4.500;2022-11-27T05:47:58;22.40;;;3.85;;
72684;SDS011;61365;52.162;4.500;2022-11-27T05:50:24;8.30;;;2.90;;
72684;SDS011;61365;52.162;4.500;2022-11-27T05:52:51;9.07;;;3.00;;
72684;SDS011;61365;52.162;4.500;2022-11-27T05:55:17;9.55;;;2.90;;
72684;SDS011;61365;52.162;4.500;2022-11-27T05:57:43;13.43;;;3.70;;
72684;SDS011;61365;52.162;4.500;2022-11-27T06:00:10;9.00;;;2.67;;
72684;SDS011;61365;52.162;4.500;2022-11-27T06:02:37;12.80;;;3.33;;
72684;SDS011;61365;52.162;4.500;2022-11-27T06:05:03;13.82;;;3.15;;
72684;SDS011;61365;52.162;4.500;2022-11-27T06:07:30;13.10;;;2.60;;
72684;SDS011;61365;52.162;4.500;2022-11-27T06:09:56;14.32;;;3.13;;
72684;SDS011;61365;52.162;4.500;2022-11-27T06:12:23;9.77;;;3.03;;
72684;SDS011;61365;52.162;4.500;2022-11-27T06:14:49;11.55;;;2.72;;
72684;SDS011;61365;52.162;4.500;2022-11-27T06:17:15;12.18;;;3.17;;
72684;SDS011;61365;52.162;4.500;2022-11-27T06:19:42;15.30;;;3.25;;
72684;SDS011;61365;52.162;4.500;2022-11-27T06:22:08;12.10;;;3.05;;
72684;SDS011;61365;52.162;4.500;2022-11-27T06:24:34;12.25;;;3.10;;
72684;SDS011;61365;52.162;4.500;2022-11-27T06:27:01;9.10;;;2.92;;
72684;SDS011;61365;52.162;4.500;2022-11-27T06:29:27;12.82;;;2.67;;
72684;SDS011;61365;52.162;4.500;2022-11-27T06:31:53;10.60;;;2.70;;
72684;SDS011;61365;52.162;4.500;2022-11-27T06:34:20;13.77;;;3.17;;
72684;SDS011;61365;52.162;4.500;2022-11-27T06:36:46;14.68;;;2.72;;
72684;SDS011;61365;52.162;4.500;2022-11-27T06:39:14;11.70;;;2.78;;
72684;SDS011;61365;52.162;4.500;2022-11-27T06:41:40;7.88;;;2.60;;
72684;SDS011;61365;52.162;4.500;2022-11-27T06:44:08;12.15;;;2.53;;
72684;SDS011;61365;52.162;4.500;2022-11-27T06:46:35;10.13;;;2.63;;
72684;SDS011;61365;52.162;4.500;2022-11-27T06:49:01;9.63;;;3.45;;
72684;SDS011;61365;52.162;4.500;2022-11-27T06:51:29;8.13;;;2.63;;
72684;SDS011;61365;52.162;4.500;2022-11-27T06:53:58;7.10;;;2.08;;
72684;SDS011;61365;52.162;4.500;2022-11-27T06:56:26;12.00;;;2.63;;
72684;SDS011;61365;52.162;4.500;2022-11-27T06:58:56;7.05;;;2.40;;
72684;SDS011;61365;52.162;4.500;2022-11-27T07:01:26;10.98;;;2.80;;
72684;SDS011;61365;52.162;4.500;2022-11-27T07:03:55;10.00;;;2.65;;
72684;SDS011;61365;52.162;4.500;2022-11-27T07:06:23;8.35;;;2.63;;
72684;SDS011;61365;52.162;4.500;2022-11-27T07:08:51;7.82;;;2.40;;
72684;SDS011;61365;52.162;4.500;2022-11-27T07:11:20;9.07;;;2.60;;
72684;SDS011;61365;52.162;4.500;2022-11-27T07:13:51;10.07;;;2.47;;
72684;SDS011;61365;52.162;4.500;2022-11-27T07:16:21;6.90;;;2.38;;
72684;SDS011;61365;52.162;4.500;2022-11-27T07:18:50;8.98;;;2.78;;
72684;SDS011;61365;52.162;4.500;2022-11-27T07:21:22;8.98;;;2.85;;
72684;SDS011;61365;52.162;4.500;2022-11-27T07:23:49;7.78;;;2.83;;
72684;SDS011;61365;52.162;4.500;2022-11-27T07:26:17;12.65;;;3.08;;
72684;SDS011;61365;52.162;4.500;2022-11-27T07:28:47;9.82;;;2.20;;
72684;SDS011;61365;52.162;4.500;2022-11-27T07:31:16;8.75;;;2.65;;
72684;SDS011;61365;52.162;4.500;2022-11-27T07:33:46;11.02;;;2.55;;
72684;SDS011;61365;52.162;4.500;2022-11-27T07:36:14;9.88;;;2.25;;
72684;SDS011;61365;52.162;4.500;2022-11-27T07:39:08;8.32;;;2.35;;
72684;SDS011;61365;52.162;4.500;2022-11-27T07:41:35;8.85;;;2.33;;
72684;SDS011;61365;52.162;4.500;2022-11-27T07:44:01;5.55;;;2.17;;
72684;SDS011;61365;52.162;4.500;2022-11-27T07:46:28;8.48;;;2.63;;
72684;SDS011;61365;52.162;4.500;2022-11-27T07:48:55;10.60;;;3.08;;
72684;SDS011;61365;52.162;4.500;2022-11-27T07:51:21;8.35;;;2.53;;
72684;SDS011;61365;52.162;4.500;2022-11-27T07:53:48;9.77;;;2.97;;
72684;SDS011;61365;52.162;4.500;2022-11-27T07:56:17;7.32;;;2.58;;
72684;SDS011;61365;52.162;4.500;2022-11-27T07:58:45;8.27;;;2.60;;
72684;SDS011;61365;52.162;4.500;2022-11-27T08:01:13;7.72;;;2.20;;
72684;SDS011;61365;52.162;4.500;2022-11-27T08:03:43;11.38;;;2.92;;
72684;SDS011;61365;52.162;4.500;2022-11-27T08:06:16;7.20;;;3.08;;
72684;SDS011;61365;52.162;4.500;2022-11-27T08:08:46;8.52;;;2.45;;
72684;SDS011;61365;52.162;4.500;2022-11-27T08:11:14;11.50;;;2.85;;
72684;SDS011;61365;52.162;4.500;2022-11-27T08:13:42;11.15;;;3.15;;
72684;SDS011;61365;52.162;4.500;2022-11-27T08:16:09;9.18;;;2.70;;
72684;SDS011;61365;52.162;4.500;2022-11-27T08:18:35;10.52;;;3.05;;
72684;SDS011;61365;52.162;4.500;2022-11-27T08:21:01;8.63;;;2.85;;
72684;SDS011;61365;52.162;4.500;2022-11-27T08:23:28;8.73;;;2.90;;
72684;SDS011;61365;52.162;4.500;2022-11-27T08:25:54;9.23;;;2.88;;
72684;SDS011;61365;52.162;4.500;2022-11-27T08:28:20;8.60;;;2.70;;
72684;SDS011;61365;52.162;4.500;2022-11-27T08:30:56;13.93;;;3.15;;
72684;SDS011;61365;52.162;4.500;2022-11-27T08:33:24;8.20;;;3.28;;
72684;SDS011;61365;52.162;4.500;2022-11-27T08:35:51;12.10;;;3.33;;
72684;SDS011;61365;52.162;4.500;2022-11-27T08:38:17;10.55;;;3.20;;
72684;SDS011;61365;52.162;4.500;2022-11-27T08:40:44;12.07;;;3.67;;
72684;SDS011;61365;52.162;4.500;2022-11-27T08:43:10;8.27;;;3.13;;
72684;SDS011;61365;52.162;4.500;2022-11-27T08:45:38;12.30;;;3.67;;
72684;SDS011;61365;52.162;4.500;2022-11-27T08:48:04;8.48;;;3.60;;
72684;SDS011;61365;52.162;4.500;2022-11-27T08:50:31;9.07;;;3.03;;
72684;SDS011;61365;52.162;4.500;2022-11-27T08:52:57;8.63;;;3.55;;
72684;SDS011;61365;52.162;4.500;2022-11-27T08:55:23;11.18;;;3.50;;
72684;SDS011;61365;52.162;4.500;2022-11-27T08:57:50;11.27;;;3.58;;
72684;SDS011;61365;52.162;4.500;2022-11-27T09:00:16;10.48;;;3.38;;
72684;SDS011;61365;52.162;4.500;2022-11-27T09:02:43;8.38;;;3.55;;
72684;SDS011;61365;52.162;4.500;2022-11-27T09:05:09;10.00;;;3.55;;
72684;SDS011;61365;52.162;4.500;2022-11-27T09:07:36;12.98;;;3.65;;
72684;SDS011;61365;52.162;4.500;2022-11-27T09:10:02;8.32;;;3.72;;
72684;SDS011;61365;52.162;4.500;2022-11-27T09:12:29;12.05;;;3.70;;
72684;SDS011;61365;52.162;4.500;2022-11-27T09:14:56;12.48;;;3.83;;
72684;SDS011;61365;52.162;4.500;2022-11-27T09:17:22;14.68;;;4.60;;
72684;SDS011;61365;52.162;4.500;2022-11-27T09:19:48;9.88;;;3.22;;
72684;SDS011;61365;52.162;4.500;2022-11-27T09:22:15;10.90;;;3.45;;
72684;SDS011;61365;52.162;4.500;2022-11-27T09:24:41;10.80;;;4.00;;
72684;SDS011;61365;52.162;4.500;2022-11-27T09:27:07;11.60;;;3.58;;
72684;SDS011;61365;52.162;4.500;2022-11-27T09:29:34;13.35;;;4.55;;
72684;SDS011;61365;52.162;4.500;2022-11-27T09:32:00;12.48;;;4.20;;
72684;SDS011;61365;52.162;4.500;2022-11-27T09:34:27;13.95;;;4.40;;
72684;SDS011;61365;52.162;4.500;2022-11-27T09:36:53;10.13;;;4.00;;
72684;SDS011;61365;52.162;4.500;2022-11-27T09:39:19;16.95;;;4.82;;
72684;SDS011;61365;52.162;4.500;2022-11-27T09:41:50;14.50;;;4.60;;
72684;SDS011;61365;52.162;4.500;2022-11-27T09:47:12;13.05;;;4.32;;
72684;SDS011;61365;52.162;4.500;2022-11-27T09:52:47;12.80;;;4.75;;
72684;SDS011;61365;52.162;4.500;2022-11-27T10:00:51;14.70;;;4.88;;
72684;SDS011;61365;52.162;4.500;2022-11-27T10:03:19;15.00;;;5.15;;
72684;SDS011;61365;52.162;4.500;2022-11-27T10:08:51;15.30;;;5.10;;
72684;SDS011;61365;52.162;4.500;2022-11-27T10:17:36;11.45;;;5.40;;
72684;SDS011;61365;52.162;4.500;2022-11-27T10:20:57;13.77;;;5.22;;
72684;SDS011;61365;52.162;4.500;2022-11-27T10:26:08;13.85;;;5.78;;
72684;SDS011;61365;52.162;4.500;2022-11-27T10:31:45;17.75;;;5.65;;
72684;SDS011;61365;52.162;4.500;2022-11-27T10:39:53;14.05;;;5.38;;
72684;SDS011;61365;52.162;4.500;2022-11-27T10:48:19;12.63;;;5.05;;
72684;SDS011;61365;52.162;4.500;2022-11-27T10:50:47;12.25;;;5.00;;
72684;SDS011;61365;52.162;4.500;2022-11-27T11:01:39;13.23;;;5.43;;
72684;SDS011;61365;52.162;4.500;2022-11-27T11:04:21;12.18;;;5.03;;
72684;SDS011;61365;52.162;4.500;2022-11-27T11:06:54;12.50;;;5.10;;
72684;SDS011;61365;52.162;4.500;2022-11-27T11:09:26;14.57;;;5.65;;
72684;SDS011;61365;52.162;4.500;2022-11-27T11:12:16;15.27;;;5.90;;
72684;SDS011;61365;52.162;4.500;2022-11-27T11:14:53;10.00;;;5.18;;
72684;SDS011;61365;52.162;4.500;2022-11-27T11:17:26;14.32;;;5.35;;
72684;SDS011;61365;52.162;4.500;2022-11-27T11:19:59;14.65;;;5.60;;
72684;SDS011;61365;52.162;4.500;2022-11-27T11:22:26;12.18;;;5.25;;
72684;SDS011;61365;52.162;4.500;2022-11-27T11:24:54;12.68;;;5.68;;
72684;SDS011;61365;52.162;4.500;2022-11-27T11:27:28;13.73;;;5.68;;
72684;SDS011;61365;52.162;4.500;2022-11-27T11:29:58;16.65;;;5.53;;
72684;SDS011;61365;52.162;4.500;2022-11-27T11:32:30;18.10;;;5.70;;
72684;SDS011;61365;52.162;4.500;2022-11-27T11:35:03;15.02;;;6.40;;
72684;SDS011;61365;52.162;4.500;2022-11-27T11:37:50;12.82;;;5.80;;
72684;SDS011;61365;52.162;4.500;2022-11-27T11:40:21;15.32;;;5.97;;
72684;SDS011;61365;52.162;4.500;2022-11-27T11:42:53;13.52;;;5.97;;
72684;SDS011;61365;52.162;4.500;2022-11-27T11:45:26;13.60;;;5.53;;
72684;SDS011;61365;52.162;4.500;2022-11-27T11:48:00;17.17;;;5.40;;
72684;SDS011;61365;52.162;4.500;2022-11-27T11:50:53;14.55;;;5.80;;
72684;SDS011;61365;52.162;4.500;2022-11-27T11:58:57;11.98;;;5.93;;
72684;SDS011;61365;52.162;4.500;2022-11-27T12:21:00;13.52;;;5.43;;
72684;SDS011;61365;52.162;4.500;2022-11-27T12:27:20;16.63;;;5.70;;
72684;SDS011;61365;52.162;4.500;2022-11-27T12:30:38;14.75;;;6.47;;
72684;SDS011;61365;52.162;4.500;2022-11-27T12:36:14;11.60;;;5.72;;
72684;SDS011;61365;52.162;4.500;2022-11-27T12:39:30;13.20;;;6.63;;
72684;SDS011;61365;52.162;4.500;2022-11-27T12:50:16;15.88;;;6.95;;
72684;SDS011;61365;52.162;4.500;2022-11-27T12:56:09;14.18;;;6.90;;
72684;SDS011;61365;52.162;4.500;2022-11-27T13:02:30;14.55;;;6.40;;
72684;SDS011;61365;52.162;4.500;2022-11-27T13:05:09;11.43;;;6.10;;
72684;SDS011;61365;52.162;4.500;2022-11-27T13:07:52;10.90;;;5.93;;
72684;SDS011;61365;52.162;4.500;2022-11-27T13:13:19;12.63;;;6.45;;
72684;SDS011;61365;52.162;4.500;2022-11-27T13:15:56;9.77;;;6.38;;
72684;SDS011;61365;52.162;4.500;2022-11-27T13:18:30;12.27;;;6.68;;
72684;SDS011;61365;52.162;4.500;2022-11-27T13:21:13;14.50;;;6.50;;
72684;SDS011;61365;52.162;4.500;2022-11-27T13:23:47;11.85;;;5.95;;
72684;SDS011;61365;52.162;4.500;2022-11-27T13:26:20;13.57;;;5.90;;
72684;SDS011;61365;52.162;4.500;2022-11-27T13:28:56;10.48;;;6.47;;
72684;SDS011;61365;52.162;4.500;2022-11-27T13:31:30;12.60;;;6.55;;
72684;SDS011;61365;52.162;4.500;2022-11-27T13:34:06;10.52;;;6.47;;
72684;SDS011;61365;52.162;4.500;2022-11-27T13:36:43;11.85;;;5.90;;
72684;SDS011;61365;52.162;4.500;2022-11-27T13:39:23;8.80;;;5.47;;
72684;SDS011;61365;52.162;4.500;2022-11-27T13:44:38;12.13;;;5.97;;
72684;SDS011;61365;52.162;4.500;2022-11-27T13:47:12;12.10;;;6.18;;
72684;SDS011;61365;52.162;4.500;2022-11-27T13:49:44;10.25;;;6.07;;
72684;SDS011;61365;52.162;4.500;2022-11-27T13:52:26;11.38;;;6.75;;
72684;SDS011;61365;52.162;4.500;2022-11-27T13:57:30;12.05;;;5.75;;
72684;SDS011;61365;52.162;4.500;2022-11-27T14:02:44;13.48;;;6.82;;
72684;SDS011;61365;52.162;4.500;2022-11-27T14:05:15;12.52;;;6.13;;
72684;SDS011;61365;52.162;4.500;2022-11-27T14:07:58;12.63;;;5.97;;
72684;SDS011;61365;52.162;4.500;2022-11-27T14:10:26;12.77;;;6.53;;
72684;SDS011;61365;52.162;4.500;2022-11-27T14:12:58;11.10;;;7.03;;
72684;SDS011;61365;52.162;4.500;2022-11-27T14:15:32;12.63;;;6.40;;
72684;SDS011;61365;52.162;4.500;2022-11-27T14:20:51;12.35;;;6.85;;
72684;SDS011;61365;52.162;4.500;2022-11-27T14:23:27;11.20;;;6.40;;
72684;SDS011;61365;52.162;4.500;2022-11-27T14:28:40;13.07;;;7.90;;
72684;SDS011;61365;52.162;4.500;2022-11-27T14:34:01;11.63;;;6.38;;
72684;SDS011;61365;52.162;4.500;2022-11-27T14:36:28;12.80;;;7.78;;
72684;SDS011;61365;52.162;4.500;2022-11-27T14:38:59;13.35;;;6.03;;
72684;SDS011;61365;52.162;4.500;2022-11-27T14:41:27;11.40;;;6.32;;
72684;SDS011;61365;52.162;4.500;2022-11-27T14:44:02;12.65;;;6.10;;
72684;SDS011;61365;52.162;4.500;2022-11-27T14:46:39;9.07;;;5.90;;
72684;SDS011;61365;52.162;4.500;2022-11-27T14:49:14;13.05;;;6.38;;
72684;SDS011;61365;52.162;4.500;2022-11-27T14:51:44;14.13;;;6.40;;
72684;SDS011;61365;52.162;4.500;2022-11-27T14:54:16;13.60;;;7.97;;
72684;SDS011;61365;52.162;4.500;2022-11-27T14:56:50;12.75;;;7.78;;
72684;SDS011;61365;52.162;4.500;2022-11-27T14:59:18;12.98;;;6.82;;
72684;SDS011;61365;52.162;4.500;2022-11-27T15:01:58;13.90;;;7.63;;
72684;SDS011;61365;52.162;4.500;2022-11-27T15:04:43;16.52;;;8.50;;
72684;SDS011;61365;52.162;4.500;2022-11-27T15:09:53;16.67;;;9.25;;
72684;SDS011;61365;52.162;4.500;2022-11-27T15:12:27;16.58;;;9.63;;
72684;SDS011;61365;52.162;4.500;2022-11-27T15:18:01;14.60;;;9.15;;
72684;SDS011;61365;52.162;4.500;2022-11-27T15:23:22;21.75;;;11.32;;
72684;SDS011;61365;52.162;4.500;2022-11-27T15:30:57;20.50;;;10.95;;
72684;SDS011;61365;52.162;4.500;2022-11-27T15:33:28;22.48;;;11.40;;
72684;SDS011;61365;52.162;4.500;2022-11-27T15:38:46;20.38;;;11.20;;
72684;SDS011;61365;52.162;4.500;2022-11-27T15:41:25;18.73;;;10.80;;
72684;SDS011;61365;52.162;4.500;2022-11-27T15:43:55;21.48;;;11.52;;
72684;SDS011;61365;52.162;4.500;2022-11-27T15:46:28;21.55;;;10.93;;
72684;SDS011;61365;52.162;4.500;2022-11-27T15:48:59;16.42;;;10.73;;
72684;SDS011;61365;52.162;4.500;2022-11-27T15:51:26;19.55;;;9.57;;
72684;SDS011;61365;52.162;4.500;2022-11-27T15:53:52;20.90;;;9.95;;
72684;SDS011;61365;52.162;4.500;2022-11-27T15:56:18;17.85;;;9.05;;
72684;SDS011;61365;52.162;4.500;2022-11-27T15:58:45;17.40;;;7.97;;
72684;SDS011;61365;52.162;4.500;2022-11-27T16:01:11;16.23;;;8.35;;
72684;SDS011;61365;52.162;4.500;2022-11-27T16:03:38;18.23;;;8.60;;
72684;SDS011;61365;52.162;4.500;2022-11-27T16:06:05;16.33;;;8.63;;
72684;SDS011;61365;52.162;4.500;2022-11-27T16:08:33;17.23;;;7.93;;
72684;SDS011;61365;52.162;4.500;2022-11-27T16:11:01;17.90;;;8.18;;
72684;SDS011;61365;52.162;4.500;2022-11-27T16:13:32;17.75;;;9.38;;
72684;SDS011;61365;52.162;4.500;2022-11-27T16:16:06;20.25;;;8.93;;
72684;SDS011;61365;52.162;4.500;2022-11-27T16:18:33;19.63;;;8.50;;
72684;SDS011;61365;52.162;4.500;2022-11-27T16:21:03;22.15;;;8.32;;
72684;SDS011;61365;52.162;4.500;2022-11-27T16:23:32;16.20;;;9.13;;
72684;SDS011;61365;52.162;4.500;2022-11-27T16:26:00;21.25;;;7.95;;
72684;SDS011;61365;52.162;4.500;2022-11-27T16:28:26;16.77;;;8.82;;
72684;SDS011;61365;52.162;4.500;2022-11-27T16:30:56;18.67;;;8.55;;
72684;SDS011;61365;52.162;4.500;2022-11-27T16:33:26;15.30;;;9.15;;
72684;SDS011;61365;52.162;4.500;2022-11-27T16:35:55;19.70;;;9.55;;
72684;SDS011;61365;52.162;4.500;2022-11-27T16:40:57;19.38;;;8.93;;
72684;SDS011;61365;52.162;4.500;2022-11-27T16:43:32;20.98;;;9.02;;
72684;SDS011;61365;52.162;4.500;2022-11-27T16:46:06;14.85;;;8.80;;
72684;SDS011;61365;52.162;4.500;2022-11-27T16:48:38;22.92;;;10.52;;
72684;SDS011;61365;52.162;4.500;2022-11-27T16:51:11;21.27;;;9.57;;
72684;SDS011;61365;52.162;4.500;2022-11-27T16:53:40;20.33;;;9.27;;
72684;SDS011;61365;52.162;4.500;2022-11-27T16:56:10;18.02;;;8.85;;
72684;SDS011;61365;52.162;4.500;2022-11-27T16:58:40;15.05;;;8.88;;
72684;SDS011;61365;52.162;4.500;2022-11-27T17:01:10;18.13;;;10.00;;
72684;SDS011;61365;52.162;4.500;2022-11-27T17:03:40;18.13;;;9.45;;
72684;SDS011;61365;52.162;4.500;2022-11-27T17:06:07;17.08;;;8.93;;
72684;SDS011;61365;52.162;4.500;2022-11-27T17:08:35;18.27;;;9.63;;
72684;SDS011;61365;52.162;4.500;2022-11-27T17:11:07;19.77;;;9.43;;
72684;SDS011;61365;52.162;4.500;2022-11-27T17:13:34;21.77;;;11.55;;
72684;SDS011;61365;52.162;4.500;2022-11-27T17:16:01;18.52;;;10.63;;
72684;SDS011;61365;52.162;4.500;2022-11-27T17:18:29;16.67;;;10.43;;
72684;SDS011;61365;52.162;4.500;2022-11-27T17:20:59;21.05;;;10.93;;
72684;SDS011;61365;52.162;4.500;2022-11-27T17:23:35;25.10;;;11.10;;
72684;SDS011;61365;52.162;4.500;2022-11-27T17:26:09;16.48;;;10.60;;
72684;SDS011;61365;52.162;4.500;2022-11-27T17:28:38;17.35;;;10.65;;
72684;SDS011;61365;52.162;4.500;2022-11-27T17:31:08;19.73;;;9.85;;
72684;SDS011;61365;52.162;4.500;2022-11-27T17:33:40;19.23;;;10.15;;